FNBG/BUG METAR and TAF weather

Enter ICAO airport designator
Station Type Date Time Source
FNBG METAR 2020/01/23 14:00 UTC NOAA

FNBG 231400Z 31008KT 9999 SCT015 BKN120 30/23 Q1009


Station Type Date Time Source
FNBG Decoded METAR 2020/01/23 14:00 UTC NOAA

Monbaca Benguela , Angola (FNBG) 12-35S 013-25E 4M
Jan 23, 2020 - 09:00 AM EST / 2020.01.23 1400 UTC
Wind: from the NW (310 degrees) at 9 MPH (8 KT):0
Visibility: greater than 7 mile(s):0
Sky conditions: mostly cloudy
Temperature: 86 F (30 C)
Heat index: 93.4 F (34.1 C):1
Dew Point: 73 F (23 C)
Relative Humidity: 66%
Pressure (altimeter): 29.80 in. Hg (1009 hPa)
ob: FNBG 231400Z 31008KT 9999 SCT015 BKN120 30/23 Q1009
cycle: 14

Station Type Date Time Source
FNBG TAF 2020/01/23 12:00 UTC NOAA

TAF FNBG 231100Z 2312/2324 30012KT 9999 FEW014 SCT020
BECMG 2322/2324 24005KT

Example: see airport list